Time;durP1;ratioP1;P1;durP2;ratioP2;P2;SDS_P1;SDS_P2;PMS_P1;PMS_P2;Temp;Humidity;BMP_temperature;BMP_pressure;BME280_temperature;BME280_humidity;BME280_pressure;Samples;Min_cycle;Max_cycle;Signal;HPM_P1;HPM_P2
2022/03/30 00:02:05;;;;;;;12.50;4.10;;;3.80;99.90;;;;;;4957673;29;20177;-86
2022/03/30 00:04:31;;;;;;;12.47;3.93;;;3.80;99.90;;;;;;4956192;29;20256;-86
2022/03/30 00:06:57;;;;;;;14.33;5.23;;;3.80;99.90;;;;;;4957674;29;20169;-88
2022/03/30 00:09:23;;;;;;;14.57;5.13;;;3.70;99.90;;;;;;4956156;29;20188;-87
2022/03/30 00:11:53;;;;;;;9.43;4.67;;;3.60;99.90;;;;;;4956291;29;20197;-88
2022/03/30 00:14:19;;;;;;;18.00;5.53;;;3.60;99.90;;;;;;4957141;28;20192;-86
2022/03/30 00:16:45;;;;;;;12.87;5.50;;;3.50;99.90;;;;;;4957309;28;20228;-85
2022/03/30 00:19:11;;;;;;;12.63;5.40;;;3.50;99.90;;;;;;4956980;29;20181;-87
2022/03/30 00:21:37;;;;;;;15.00;4.90;;;3.50;99.90;;;;;;4955816;29;20185;-87
2022/03/30 00:24:03;;;;;;;13.00;4.20;;;3.50;99.90;;;;;;4957235;28;20500;-86
2022/03/30 00:26:28;;;;;;;10.17;4.13;;;3.50;99.90;;;;;;4956549;28;20188;-87
2022/03/30 00:28:54;;;;;;;12.13;4.50;;;3.40;99.90;;;;;;4957020;29;20185;-87
2022/03/30 00:31:21;;;;;;;11.40;4.10;;;3.40;99.90;;;;;;4956904;29;20248;-86
2022/03/30 00:33:48;;;;;;;8.73;3.93;;;3.40;99.90;;;;;;4956874;29;20177;-87
2022/03/30 00:36:14;;;;;;;10.90;4.53;;;3.40;99.90;;;;;;4957168;28;20529;-87
2022/03/30 00:38:39;;;;;;;9.43;4.50;;;3.30;99.90;;;;;;4956790;29;20174;-86
2022/03/30 00:41:05;;;;;;;8.20;4.00;;;3.10;99.90;;;;;;4956977;29;20173;-88
2022/03/30 00:43:33;;;;;;;11.27;3.97;;;3.20;99.90;;;;;;4955621;29;20759;-87
2022/03/30 00:45:59;;;;;;;10.27;3.60;;;3.20;99.90;;;;;;4957131;28;20173;-87
2022/03/30 00:48:24;;;;;;;10.30;4.33;;;3.20;99.90;;;;;;4955549;29;20185;-87
2022/03/30 00:50:50;;;;;;;9.10;3.90;;;3.10;99.90;;;;;;4957036;28;20216;-87
2022/03/30 00:53:16;;;;;;;8.60;3.77;;;3.00;99.90;;;;;;4956852;28;20671;-88
2022/03/30 00:55:42;;;;;;;11.40;3.63;;;3.00;99.90;;;;;;4957142;28;20522;-88
2022/03/30 00:58:09;;;;;;;12.43;4.10;;;3.00;99.90;;;;;;4955657;29;20175;-86
2022/03/30 01:00:35;;;;;;;11.60;4.20;;;3.00;99.90;;;;;;4955610;29;20212;-87
2022/03/30 01:03:01;;;;;;;7.90;3.70;;;3.00;99.90;;;;;;4955727;29;20181;-88
2022/03/30 01:05:27;;;;;;;10.63;3.80;;;3.00;99.90;;;;;;4956513;29;20189;-88
2022/03/30 01:07:57;;;;;;;12.10;3.70;;;3.00;99.90;;;;;;4956638;29;20170;-88
2022/03/30 01:10:24;;;;;;;11.33;3.60;;;2.90;99.90;;;;;;4956842;28;20220;-87
2022/03/30 01:12:52;;;;;;;12.83;4.30;;;2.80;99.90;;;;;;4956635;28;20268;-88
2022/03/30 01:15:19;;;;;;;14.67;4.10;;;2.70;99.90;;;;;;4956810;28;20631;-87
2022/03/30 01:17:46;;;;;;;13.27;4.70;;;2.70;99.90;;;;;;4956732;28;20168;-87
2022/03/30 01:20:15;;;;;;;8.70;3.67;;;2.60;99.90;;;;;;4956441;28;20181;-88
2022/03/30 01:22:41;;;;;;;11.87;3.97;;;2.60;99.90;;;;;;4956637;28;20183;-87
2022/03/30 01:25:07;;;;;;;11.40;4.20;;;2.60;99.90;;;;;;4956647;29;20664;-87
2022/03/30 01:27:33;;;;;;;13.17;4.30;;;2.60;99.90;;;;;;4956782;28;20173;-88
2022/03/30 01:33:03;;;;;;;11.33;4.63;;;2.60;99.90;;;;;;4956547;29;20546;-87
2022/03/30 01:35:30;;;;;;;12.83;4.40;;;2.50;99.90;;;;;;4956276;28;20184;-87
2022/03/30 01:37:55;;;;;;;10.30;4.60;;;2.40;99.90;;;;;;4958046;28;20181;-87
2022/03/30 01:40:21;;;;;;;11.10;4.00;;;2.40;99.90;;;;;;4960171;28;20173;-85
2022/03/30 01:42:47;;;;;;;12.83;4.40;;;2.40;99.90;;;;;;4959915;28;20247;-87
2022/03/30 01:45:15;;;;;;;13.27;4.70;;;2.40;99.90;;;;;;4960112;28;20200;-86
2022/03/30 01:47:51;;;;;;;11.13;4.13;;;2.40;99.90;;;;;;4960008;28;20240;-88
2022/03/30 01:50:17;;;;;;;7.83;3.90;;;2.50;99.90;;;;;;4959903;28;20258;-87
2022/03/30 01:52:43;;;;;;;9.03;3.77;;;2.50;99.90;;;;;;4960024;28;20204;-88
2022/03/30 01:55:09;;;;;;;12.10;3.93;;;2.50;99.90;;;;;;4959776;29;20618;-88
2022/03/30 01:57:35;;;;;;;10.33;4.37;;;2.50;99.90;;;;;;4959874;28;20208;-87
2022/03/30 02:00:04;;;;;;;7.27;3.53;;;2.50;99.90;;;;;;4959695;29;20177;-88
2022/03/30 02:02:30;;;;;;;8.13;3.80;;;2.40;99.90;;;;;;4959715;28;20204;-87
2022/03/30 02:04:55;;;;;;;7.23;3.67;;;2.30;99.90;;;;;;4959588;28;20191;-88
2022/03/30 02:07:21;;;;;;;7.13;3.30;;;2.30;99.90;;;;;;4958437;29;20188;-88
2022/03/30 02:09:48;;;;;;;10.53;3.53;;;2.30;99.90;;;;;;4959652;29;20221;-88
2022/03/30 02:12:14;;;;;;;7.57;3.27;;;2.40;99.90;;;;;;4958286;29;20195;-88
2022/03/30 02:14:41;;;;;;;10.40;3.30;;;2.30;99.90;;;;;;4959415;29;20176;-88
2022/03/30 02:17:07;;;;;;;7.60;3.47;;;2.40;99.90;;;;;;4959522;28;20547;-87
2022/03/30 02:19:32;;;;;;;12.07;3.10;;;2.40;99.90;;;;;;4958166;29;20182;-88
2022/03/30 02:21:58;;;;;;;8.53;3.30;;;2.40;99.90;;;;;;4959560;28;20209;-85
2022/03/30 02:24:24;;;;;;;9.33;3.53;;;2.30;99.90;;;;;;4959644;29;20177;-88
2022/03/30 02:26:51;;;;;;;13.30;3.47;;;2.20;99.90;;;;;;4959694;28;20173;-87
2022/03/30 02:29:17;;;;;;;10.97;3.60;;;2.20;99.90;;;;;;4959451;28;20184;-86
2022/03/30 02:31:43;;;;;;;7.43;3.20;;;2.20;99.90;;;;;;4959237;29;20244;-88
2022/03/30 02:34:10;;;;;;;7.80;2.93;;;2.20;99.90;;;;;;4959060;28;20193;-86
2022/03/30 02:36:36;;;;;;;9.27;3.30;;;2.20;99.90;;;;;;4959514;28;20174;-87
2022/03/30 02:39:03;;;;;;;9.63;2.93;;;2.10;99.90;;;;;;4959279;28;20509;-87
2022/03/30 02:41:29;;;;;;;7.83;3.03;;;2.10;99.90;;;;;;4958789;28;20186;-87
2022/03/30 02:43:55;;;;;;;10.50;3.13;;;2.00;99.90;;;;;;4959078;28;20187;-87
2022/03/30 02:46:21;;;;;;;6.73;2.87;;;2.00;99.90;;;;;;4959102;28;20607;-88
2022/03/30 02:48:46;;;;;;;8.17;2.60;;;1.90;99.90;;;;;;4957943;28;20534;-87
2022/03/30 02:51:12;;;;;;;5.93;2.90;;;2.00;99.90;;;;;;4958676;28;20264;-84
2022/03/30 02:53:38;;;;;;;12.33;3.07;;;2.00;99.90;;;;;;4958927;28;20175;-87
2022/03/30 02:56:04;;;;;;;11.03;3.30;;;2.00;99.90;;;;;;4958870;28;20197;-88
2022/03/30 02:58:31;;;;;;;15.17;3.60;;;2.00;99.90;;;;;;4957561;29;20182;-87
2022/03/30 03:00:56;;;;;;;7.27;2.60;;;1.90;99.90;;;;;;4958712;28;20178;-87
2022/03/30 03:03:23;;;;;;;11.33;3.30;;;1.90;99.90;;;;;;4957543;29;20200;-87
2022/03/30 03:05:49;;;;;;;9.83;3.37;;;1.80;99.90;;;;;;4958519;28;20192;-87
2022/03/30 03:08:15;;;;;;;10.33;2.97;;;1.70;99.90;;;;;;4957369;29;20199;-87
2022/03/30 03:10:46;;;;;;;8.37;2.77;;;1.70;99.90;;;;;;4958193;28;20549;-87
2022/03/30 03:13:13;;;;;;;10.50;3.07;;;1.70;99.90;;;;;;4958476;28;20158;-85
2022/03/30 03:15:40;;;;;;;7.40;2.87;;;1.60;99.90;;;;;;4957227;29;20621;-85
2022/03/30 03:18:06;;;;;;;9.20;2.80;;;1.60;99.90;;;;;;4957293;29;20181;-87
2022/03/30 03:20:33;;;;;;;8.50;2.87;;;1.60;99.90;;;;;;4958173;28;20184;-84
2022/03/30 03:23:03;;;;;;;12.47;2.97;;;1.60;99.90;;;;;;4958215;28;20240;-87
2022/03/30 03:25:32;;;;;;;7.63;2.87;;;1.60;99.90;;;;;;4958222;28;20634;-85
2022/03/30 03:27:59;;;;;;;7.43;3.07;;;1.60;99.90;;;;;;4957045;29;20200;-88
2022/03/30 03:30:26;;;;;;;7.23;2.37;;;1.60;99.90;;;;;;4958049;28;20203;-87
2022/03/30 03:32:51;;;;;;;7.40;2.73;;;1.60;99.90;;;;;;4957028;29;20241;-88
2022/03/30 03:35:17;;;;;;;10.07;2.73;;;1.60;99.90;;;;;;4957867;29;20181;-88
2022/03/30 03:37:43;;;;;;;7.53;2.60;;;1.50;99.90;;;;;;4958116;28;20540;-88
2022/03/30 03:40:10;;;;;;;9.10;2.70;;;1.60;99.90;;;;;;4957947;29;20184;-88
2022/03/30 03:42:36;;;;;;;8.77;2.77;;;1.70;99.90;;;;;;4952670;29;20233;-87
2022/03/30 03:45:04;;;;;;;17.63;4.20;;;1.70;99.90;;;;;;4953750;29;20185;-87
2022/03/30 03:47:29;;;;;;;7.00;2.60;;;1.60;99.90;;;;;;4953486;29;20174;-87
2022/03/30 03:49:55;;;;;;;9.23;2.87;;;1.60;99.90;;;;;;4938305;29;20198;-87
2022/03/30 03:52:21;;;;;;;6.73;2.83;;;1.60;99.90;;;;;;4938303;29;20245;-86
2022/03/30 03:54:46;;;;;;;10.57;2.97;;;1.60;99.90;;;;;;4938608;29;20182;-87
2022/03/30 03:57:12;;;;;;;11.97;2.63;;;1.60;99.90;;;;;;4938399;29;20183;-87
2022/03/30 03:59:38;;;;;;;12.77;3.47;;;1.60;99.90;;;;;;4938504;29;20517;-87
2022/03/30 04:02:05;;;;;;;12.33;3.20;;;1.50;99.90;;;;;;4938531;29;20236;-88
2022/03/30 04:04:31;;;;;;;7.13;2.93;;;1.40;99.90;;;;;;4941932;29;20181;-88
2022/03/30 04:06:57;;;;;;;7.03;2.67;;;1.50;99.90;;;;;;4957598;29;20265;-86
2022/03/30 04:09:23;;;;;;;8.13;2.77;;;1.40;99.90;;;;;;4957500;29;20315;-86
2022/03/30 04:11:48;;;;;;;10.97;3.00;;;1.50;99.90;;;;;;4956415;29;20251;-88
2022/03/30 04:14:17;;;;;;;6.43;2.90;;;1.40;99.90;;;;;;4956325;29;20182;-88
2022/03/30 04:16:43;;;;;;;8.93;2.93;;;1.40;99.90;;;;;;4957468;28;20675;-88
2022/03/30 04:19:09;;;;;;;9.93;3.27;;;1.30;99.90;;;;;;4957105;28;20177;-87
2022/03/30 04:21:35;;;;;;;14.03;3.90;;;1.30;99.90;;;;;;4956956;29;20181;-84
2022/03/30 04:24:00;;;;;;;10.30;3.23;;;1.30;99.90;;;;;;4957289;28;20178;-87
2022/03/30 04:26:26;;;;;;;8.20;3.23;;;1.30;99.90;;;;;;4957229;29;20181;-86
2022/03/30 04:28:52;;;;;;;6.70;2.73;;;1.30;99.90;;;;;;4957150;29;20169;-88
2022/03/30 04:31:17;;;;;;;9.47;3.50;;;1.30;99.90;;;;;;4957020;29;20213;-87
2022/03/30 04:33:43;;;;;;;8.30;3.47;;;1.30;99.90;;;;;;4957070;29;20642;-87
2022/03/30 04:36:09;;;;;;;10.40;3.10;;;1.40;99.90;;;;;;4956495;29;20193;-87
2022/03/30 04:38:35;;;;;;;11.23;3.23;;;1.40;99.90;;;;;;4957002;29;20598;-86
2022/03/30 04:41:00;;;;;;;7.97;3.10;;;1.40;99.90;;;;;;4957029;29;20193;-87
2022/03/30 04:43:27;;;;;;;10.80;3.60;;;1.40;99.90;;;;;;4956531;29;20310;-88
2022/03/30 04:45:54;;;;;;;9.63;3.40;;;1.40;99.90;;;;;;4957022;28;20546;-88
2022/03/30 04:48:20;;;;;;;15.20;3.27;;;1.40;99.90;;;;;;4956913;29;20172;-87
2022/03/30 04:50:46;;;;;;;8.43;3.53;;;1.40;99.90;;;;;;4956301;29;20217;-87
2022/03/30 04:53:12;;;;;;;10.93;3.50;;;1.40;99.90;;;;;;4956692;29;20173;-87
2022/03/30 04:55:39;;;;;;;10.00;3.53;;;1.30;99.90;;;;;;4956745;29;20226;-86
2022/03/30 04:58:05;;;;;;;7.00;3.30;;;1.30;99.90;;;;;;4956243;28;20244;-82
2022/03/30 05:00:32;;;;;;;7.67;3.63;;;1.40;99.90;;;;;;4955049;29;20641;-82
2022/03/30 05:02:58;;;;;;;10.27;3.63;;;1.40;99.90;;;;;;4954769;29;20188;-81
2022/03/30 05:05:24;;;;;;;8.27;3.40;;;1.40;99.90;;;;;;4954432;29;20215;-80
2022/03/30 05:07:50;;;;;;;9.27;4.20;;;1.50;99.90;;;;;;4955919;28;20731;-79
2022/03/30 05:10:16;;;;;;;8.77;3.40;;;1.60;99.90;;;;;;4954716;29;20225;-81
2022/03/30 05:12:43;;;;;;;11.97;4.03;;;1.50;99.90;;;;;;4957188;28;20181;-81
2022/03/30 05:15:09;;;;;;;8.13;3.30;;;1.50;99.90;;;;;;4958796;29;20185;-81
2022/03/30 05:17:38;;;;;;;10.57;3.77;;;1.40;99.90;;;;;;4959936;28;20173;-82
2022/03/30 05:20:05;;;;;;;8.37;3.27;;;1.40;99.90;;;;;;4959750;28;20161;-82
2022/03/30 05:22:33;;;;;;;6.93;3.33;;;1.40;99.90;;;;;;4959984;28;20545;-83
2022/03/30 05:24:58;;;;;;;14.00;3.70;;;1.40;99.90;;;;;;4958479;29;20208;-82
2022/03/30 05:27:24;;;;;;;10.10;3.90;;;1.30;99.90;;;;;;4959710;29;20215;-82
2022/03/30 05:29:50;;;;;;;13.43;3.83;;;1.40;99.90;;;;;;4959808;29;20204;-82
2022/03/30 05:32:17;;;;;;;9.57;3.70;;;1.40;99.90;;;;;;4958539;29;20231;-82
2022/03/30 05:34:42;;;;;;;13.43;4.13;;;1.30;99.90;;;;;;4959427;29;20543;-83
2022/03/30 05:37:09;;;;;;;9.80;3.50;;;1.30;99.90;;;;;;4959652;29;20189;-81
2022/03/30 05:39:39;;;;;;;9.90;3.50;;;1.40;99.90;;;;;;4959709;28;20169;-81
2022/03/30 05:42:05;;;;;;;13.77;3.73;;;1.30;99.90;;;;;;4959430;28;20232;-79
2022/03/30 05:44:31;;;;;;;11.60;3.77;;;1.30;99.90;;;;;;4959712;29;20185;-82
2022/03/30 05:46:57;;;;;;;8.87;3.57;;;1.30;99.90;;;;;;4958110;29;20646;-80
2022/03/30 05:49:24;;;;;;;5.20;3.17;;;1.40;99.90;;;;;;4959101;29;20172;-82
2022/03/30 05:51:50;;;;;;;6.80;4.10;;;1.40;99.90;;;;;;4959350;28;20277;-82
2022/03/30 05:54:16;;;;;;;10.70;4.30;;;1.40;99.90;;;;;;4959353;28;20180;-82
2022/03/30 05:57:00;;;;;;;11.90;6.10;;;1.40;99.90;;;;;;4958133;29;20185;-81
2022/03/30 05:59:26;;;;;;;10.07;5.67;;;1.50;99.90;;;;;;4959118;29;20168;-82
2022/03/30 06:01:52;;;;;;;16.03;6.13;;;1.60;99.90;;;;;;4957901;29;20664;-83
2022/03/30 06:04:18;;;;;;;15.13;6.33;;;1.70;99.90;;;;;;4959129;28;20177;-82
2022/03/30 06:06:44;;;;;;;15.03;6.97;;;1.80;99.90;;;;;;4959246;29;20205;-83
2022/03/30 06:09:10;;;;;;;13.50;4.90;;;1.90;99.90;;;;;;4959000;29;20608;-82
2022/03/30 06:11:35;;;;;;;13.77;4.60;;;1.90;99.90;;;;;;4959091;28;20589;-82
2022/03/30 06:14:01;;;;;;;9.17;3.90;;;2.00;99.90;;;;;;4959001;28;20173;-82
2022/03/30 06:16:27;;;;;;;12.50;5.03;;;2.00;99.90;;;;;;4958944;29;20177;-83
2022/03/30 06:18:54;;;;;;;13.17;4.43;;;2.10;99.90;;;;;;4959091;29;20171;-83
2022/03/30 06:21:21;;;;;;;9.33;4.30;;;2.20;99.90;;;;;;4958581;28;20195;-81
2022/03/30 06:23:47;;;;;;;11.17;4.50;;;2.30;99.90;;;;;;4958022;28;20170;-82
2022/03/30 06:26:13;;;;;;;9.13;4.13;;;2.40;99.90;;;;;;4958568;29;20186;-83
2022/03/30 06:28:38;;;;;;;13.87;4.57;;;2.50;99.90;;;;;;4958496;28;20175;-83
2022/03/30 06:31:04;;;;;;;14.73;4.20;;;2.60;99.90;;;;;;4958658;29;20219;-83
2022/03/30 06:33:30;;;;;;;13.73;4.13;;;2.80;99.90;;;;;;4958582;29;20169;-82
2022/03/30 06:35:56;;;;;;;10.10;4.20;;;2.90;99.90;;;;;;4958297;29;20193;-83
2022/03/30 06:38:21;;;;;;;15.93;4.27;;;3.00;99.90;;;;;;4958593;28;20181;-82
2022/03/30 06:40:47;;;;;;;11.43;4.17;;;3.10;99.90;;;;;;4958630;29;20169;-82
2022/03/30 06:43:16;;;;;;;13.20;4.13;;;3.20;99.90;;;;;;4958156;29;20679;-82
2022/03/30 06:45:44;;;;;;;13.90;3.90;;;3.40;99.90;;;;;;4958432;29;20181;-82
2022/03/30 06:48:11;;;;;;;15.50;4.87;;;3.40;99.90;;;;;;4958422;28;20193;-83
2022/03/30 06:50:37;;;;;;;12.83;4.00;;;3.40;99.90;;;;;;4958162;28;20293;-82
2022/03/30 06:53:05;;;;;;;10.43;4.00;;;3.40;99.90;;;;;;4958381;28;20173;-83
2022/03/30 06:55:31;;;;;;;11.93;4.53;;;3.20;99.90;;;;;;4958207;28;20177;-82
2022/03/30 06:57:57;;;;;;;12.37;4.43;;;3.20;99.90;;;;;;4958223;29;20272;-82
2022/03/30 07:00:23;;;;;;;9.63;3.87;;;3.20;99.90;;;;;;4958253;28;20605;-82
2022/03/30 07:02:49;;;;;;;10.87;4.20;;;3.20;99.90;;;;;;4956814;29;20624;-82
2022/03/30 07:05:14;;;;;;;16.10;4.03;;;3.10;99.90;;;;;;4957803;29;20185;-82
2022/03/30 07:10:26;;;;;;;9.07;3.70;;;3.10;99.90;;;;;;4957855;29;20244;-82
2022/03/30 07:12:53;;;;;;;9.23;4.23;;;3.10;99.90;;;;;;4958064;28;20194;-82
2022/03/30 07:15:20;;;;;;;10.57;4.00;;;3.10;99.90;;;;;;4958052;28;20181;-83
2022/03/30 07:17:56;;;;;;;11.60;4.03;;;3.20;99.90;;;;;;4957892;28;20260;-83
2022/03/30 07:20:24;;;;;;;16.97;3.97;;;3.30;99.90;;;;;;4957709;28;20173;-82
2022/03/30 07:22:51;;;;;;;8.83;3.43;;;3.30;99.90;;;;;;4957622;28;20579;-82
2022/03/30 07:25:19;;;;;;;9.27;3.40;;;3.40;99.90;;;;;;4957683;28;20202;-82
2022/03/30 07:27:47;;;;;;;10.17;3.40;;;3.50;99.90;;;;;;4957900;28;20189;-82
2022/03/30 07:30:14;;;;;;;19.73;3.30;;;3.60;99.90;;;;;;4956381;29;20346;-82
2022/03/30 07:32:42;;;;;;;10.67;3.33;;;3.60;99.90;;;;;;4957524;28;20180;-82
2022/03/30 07:35:10;;;;;;;13.87;3.70;;;3.70;99.90;;;;;;4956762;28;20181;-82
2022/03/30 07:37:37;;;;;;;16.80;3.00;;;3.80;99.90;;;;;;4957175;28;20239;-82
2022/03/30 07:40:05;;;;;;;10.77;3.10;;;3.90;99.90;;;;;;4957692;28;20170;-82
2022/03/30 07:42:31;;;;;;;11.93;2.93;;;4.00;99.90;;;;;;4957413;28;20734;-82
2022/03/30 07:44:57;;;;;;;12.23;3.37;;;4.10;99.90;;;;;;4957372;28;20185;-81
2022/03/30 07:47:25;;;;;;;11.03;2.80;;;4.20;99.90;;;;;;4957235;28;20187;-81
2022/03/30 07:49:52;;;;;;;6.63;2.37;;;4.30;99.90;;;;;;4955615;29;20195;-82
2022/03/30 07:52:20;;;;;;;14.80;3.00;;;4.30;99.90;;;;;;4957146;29;20268;-82
2022/03/30 07:54:47;;;;;;;11.87;3.17;;;4.30;99.90;;;;;;4957291;28;20178;-80
2022/03/30 07:57:14;;;;;;;9.80;3.10;;;4.50;99.90;;;;;;4957180;28;20264;-82
2022/03/30 07:59:39;;;;;;;9.00;2.83;;;4.50;99.90;;;;;;4957259;28;20174;-81
2022/03/30 08:02:05;;;;;;;14.90;3.47;;;4.60;99.90;;;;;;4957113;28;20654;-82
2022/03/30 08:04:31;;;;;;;13.13;2.67;;;4.60;99.90;;;;;;4957028;28;20188;-80
2022/03/30 08:06:57;;;;;;;11.23;3.00;;;4.70;99.90;;;;;;4955463;29;20189;-81
2022/03/30 08:09:22;;;;;;;8.97;2.70;;;4.70;99.90;;;;;;4957137;28;20179;-82
2022/03/30 08:11:48;;;;;;;13.27;2.63;;;4.70;99.90;;;;;;4956829;29;20263;-81
2022/03/30 08:14:14;;;;;;;12.20;3.17;;;4.80;99.90;;;;;;4957097;29;20196;-82
2022/03/30 08:16:41;;;;;;;6.90;2.43;;;5.00;99.90;;;;;;4955726;29;20185;-82
2022/03/30 08:19:07;;;;;;;13.30;2.87;;;5.10;99.90;;;;;;4955497;29;20501;-81
2022/03/30 08:24:17;;;;;;;7.30;2.40;;;5.30;99.90;;;;;;4956827;29;20516;-82
2022/03/30 08:26:43;;;;;;;12.70;2.73;;;5.40;99.90;;;;;;4956777;28;20182;-82
2022/03/30 08:29:10;;;;;;;13.43;3.10;;;5.50;99.90;;;;;;4955354;29;20208;-83
2022/03/30 08:31:36;;;;;;;10.80;2.30;;;5.60;99.90;;;;;;4956421;28;20300;-82
2022/03/30 08:34:02;;;;;;;9.33;2.77;;;5.70;99.90;;;;;;4956513;29;20189;-82
2022/03/30 08:36:31;;;;;;;10.77;3.90;;;5.70;99.90;;;;;;4956347;28;20189;-81
2022/03/30 08:38:58;;;;;;;10.77;2.93;;;5.90;99.90;;;;;;4956611;28;20568;-82
2022/03/30 08:41:24;;;;;;;10.97;2.70;;;5.90;99.90;;;;;;4956447;28;20446;-82
2022/03/30 08:43:52;;;;;;;12.50;2.83;;;6.00;99.90;;;;;;4956345;29;20232;-82
2022/03/30 08:46:19;;;;;;;7.67;2.23;;;6.00;99.90;;;;;;4956384;28;20177;-82
2022/03/30 08:48:44;;;;;;;10.23;2.87;;;6.00;99.90;;;;;;4955954;28;20189;-82
2022/03/30 08:51:11;;;;;;;9.40;2.27;;;6.10;99.90;;;;;;4956198;29;20204;-83
2022/03/30 08:53:37;;;;;;;10.03;3.00;;;6.20;99.90;;;;;;4955103;29;20188;-82
2022/03/30 08:56:03;;;;;;;11.20;2.40;;;6.20;99.90;;;;;;4956272;28;20256;-82
2022/03/30 08:58:29;;;;;;;11.77;2.40;;;6.30;99.90;;;;;;4956359;28;20581;-81
2022/03/30 09:01:09;;;;;;;9.00;2.67;;;6.20;99.90;;;;;;4956264;28;20277;-83
2022/03/30 09:03:36;;;;;;;9.20;2.23;;;6.30;99.90;;;;;;4956463;28;20181;-83
2022/03/30 09:06:02;;;;;;;9.53;2.67;;;6.30;99.90;;;;;;4955998;28;20192;-82
2022/03/30 09:08:28;;;;;;;12.77;3.20;;;6.30;99.90;;;;;;4956103;28;20551;-83
2022/03/30 09:10:56;;;;;;;8.97;2.27;;;6.30;99.90;;;;;;4956180;28;20228;-82
2022/03/30 09:13:22;;;;;;;15.63;2.70;;;6.40;99.90;;;;;;4956016;28;20177;-82
2022/03/30 09:15:50;;;;;;;9.73;2.53;;;6.50;99.90;;;;;;4956072;29;20185;-83
2022/03/30 09:18:16;;;;;;;9.07;2.30;;;6.50;99.90;;;;;;4955118;29;20263;-82
2022/03/30 09:20:50;;;;;;;8.33;2.20;;;6.70;99.90;;;;;;4938841;29;20563;-82
2022/03/30 09:23:17;;;;;;;11.60;2.40;;;6.80;99.90;;;;;;4956090;28;20604;-81
2022/03/30 09:25:48;;;;;;;10.13;2.30;;;6.90;99.90;;;;;;4956087;28;20177;-83
2022/03/30 09:28:19;;;;;;;12.90;2.40;;;7.00;99.90;;;;;;4955966;28;20169;-82
2022/03/30 09:30:48;;;;;;;10.10;2.93;;;7.00;99.90;;;;;;4956055;28;20236;-82
2022/03/30 09:33:17;;;;;;;14.03;2.53;;;6.90;99.90;;;;;;4956008;28;20177;-82
2022/03/30 09:35:43;;;;;;;11.00;2.77;;;6.90;99.90;;;;;;4955655;28;20201;-82
2022/03/30 09:38:12;;;;;;;7.20;2.20;;;6.90;99.90;;;;;;4955767;29;20644;-82
2022/03/30 09:40:47;;;;;;;13.77;2.60;;;7.00;99.90;;;;;;4955973;28;20174;-82
2022/03/30 09:43:24;;;;;;;9.57;2.60;;;7.10;99.90;;;;;;4955691;28;20224;-83
2022/03/30 09:46:02;;;;;;;8.43;2.07;;;7.20;99.90;;;;;;4955983;28;20180;-83
2022/03/30 09:48:29;;;;;;;7.23;2.03;;;7.30;99.90;;;;;;4955790;29;20228;-83
2022/03/30 09:50:56;;;;;;;8.00;1.97;;;7.40;99.90;;;;;;4955485;28;20247;-82
2022/03/30 09:53:25;;;;;;;10.67;2.43;;;7.40;99.90;;;;;;4954367;29;20528;-82
2022/03/30 09:56:05;;;;;;;12.03;1.93;;;7.40;99.90;;;;;;4938933;29;20278;-82
2022/03/30 09:58:34;;;;;;;11.57;2.30;;;7.30;99.90;;;;;;4956543;28;20181;-83
2022/03/30 10:01:19;;;;;;;11.60;2.23;;;7.40;99.90;;;;;;4959497;28;20193;-82
2022/03/30 10:03:59;;;;;;;11.23;2.50;;;7.60;99.90;;;;;;4959299;28;20185;-81
2022/03/30 10:06:33;;;;;;;7.83;1.70;;;7.70;99.90;;;;;;4958999;28;20193;-82
2022/03/30 10:08:59;;;;;;;8.63;1.90;;;7.80;99.90;;;;;;4959188;28;20165;-82
2022/03/30 10:11:27;;;;;;;10.60;2.20;;;8.00;99.90;;;;;;4959037;28;20237;-83
2022/03/30 10:14:05;;;;;;;10.67;2.30;;;7.90;99.90;;;;;;4959165;28;20170;-82
2022/03/30 10:16:30;;;;;;;7.07;1.57;;;7.90;99.90;;;;;;4959174;28;20178;-82
2022/03/30 10:18:56;;;;;;;9.90;2.40;;;7.90;99.90;;;;;;4958972;29;20177;-82
2022/03/30 10:21:34;;;;;;;11.13;2.60;;;7.90;99.90;;;;;;4958753;28;20608;-82
2022/03/30 10:24:22;;;;;;;12.23;2.40;;;7.80;99.90;;;;;;4959005;29;20567;-82
2022/03/30 10:27:16;;;;;;;11.80;2.97;;;7.80;99.90;;;;;;4958945;29;20251;-82
2022/03/30 10:29:53;;;;;;;7.90;2.37;;;7.90;99.90;;;;;;4957814;29;20488;-83
2022/03/30 10:32:21;;;;;;;11.07;2.37;;;8.00;99.90;;;;;;4958732;28;20177;-82
2022/03/30 10:35:07;;;;;;;9.10;2.57;;;8.10;99.90;;;;;;4958707;28;20205;-83
2022/03/30 10:37:56;;;;;;;7.63;2.20;;;8.10;99.90;;;;;;4958302;28;20169;-82
2022/03/30 10:40:25;;;;;;;9.00;2.10;;;8.30;99.90;;;;;;4957495;29;20275;-82
2022/03/30 10:42:57;;;;;;;11.20;2.83;;;8.50;99.90;;;;;;4957041;29;20257;-82
2022/03/30 10:45:29;;;;;;;10.50;2.67;;;8.60;99.90;;;;;;4957371;29;20276;-82
2022/03/30 10:48:30;;;;;;;11.20;2.50;;;8.90;99.90;;;;;;4958501;29;20227;-81
2022/03/30 10:50:56;;;;;;;12.10;3.00;;;9.10;99.90;;;;;;4936951;29;20228;-83
2022/03/30 10:53:31;;;;;;;9.70;2.47;;;9.10;99.90;;;;;;4958394;29;20244;-82
2022/03/30 10:56:15;;;;;;;8.13;2.63;;;9.30;99.90;;;;;;4958324;29;20181;-83
2022/03/30 10:58:49;;;;;;;12.10;2.50;;;9.30;99.80;;;;;;4958434;28;20170;-83
2022/03/30 11:01:25;;;;;;;10.77;2.50;;;9.50;99.90;;;;;;4957178;29;20185;-83
2022/03/30 11:04:14;;;;;;;9.90;2.60;;;9.60;99.60;;;;;;4958215;28;20616;-81
2022/03/30 11:06:45;;;;;;;9.90;2.70;;;9.30;99.20;;;;;;4957973;29;20232;-83
2022/03/30 11:09:20;;;;;;;14.33;3.50;;;9.20;99.30;;;;;;4958008;28;20177;-82
2022/03/30 11:11:56;;;;;;;10.30;2.27;;;9.20;99.80;;;;;;4955929;28;20371;-83
2022/03/30 11:14:39;;;;;;;9.83;2.70;;;9.30;99.90;;;;;;4958010;28;20201;-83
2022/03/30 11:17:13;;;;;;;13.80;2.93;;;9.40;98.90;;;;;;4958089;28;20165;-82
2022/03/30 11:19:54;;;;;;;11.60;2.60;;;9.50;98.90;;;;;;4958066;28;20165;-82
2022/03/30 11:22:33;;;;;;;12.03;2.73;;;9.40;99.80;;;;;;4957564;28;20608;-81
2022/03/30 11:25:06;;;;;;;7.00;2.40;;;9.50;98.70;;;;;;4958149;28;20169;-83
2022/03/30 11:27:32;;;;;;;16.90;3.37;;;9.30;99.20;;;;;;4957691;28;20177;-82
2022/03/30 11:30:09;;;;;;;7.60;2.10;;;9.20;99.30;;;;;;4956396;29;20566;-82
2022/03/30 11:32:54;;;;;;;8.73;2.33;;;9.30;99.90;;;;;;4957868;28;20189;-83
2022/03/30 11:35:24;;;;;;;9.97;2.60;;;9.10;99.00;;;;;;4957716;28;20185;-83
2022/03/30 11:38:03;;;;;;;12.07;2.70;;;9.20;99.40;;;;;;4957494;28;20178;-83
2022/03/30 11:40:29;;;;;;;8.13;2.47;;;9.20;99.90;;;;;;4957632;28;20619;-84
2022/03/30 11:42:57;;;;;;;8.40;2.83;;;9.30;99.60;;;;;;4957430;29;20225;-81
2022/03/30 11:45:25;;;;;;;11.07;2.77;;;9.40;99.40;;;;;;4957367;28;20177;-83
2022/03/30 11:48:00;;;;;;;11.17;2.67;;;9.30;99.30;;;;;;4957721;28;20188;-82
2022/03/30 11:50:37;;;;;;;8.60;2.47;;;9.30;99.50;;;;;;4957258;28;20215;-83
2022/03/30 11:53:09;;;;;;;8.80;2.53;;;9.30;99.10;;;;;;4957475;28;20663;-83
2022/03/30 11:55:48;;;;;;;11.17;2.63;;;9.30;99.80;;;;;;4956117;29;20554;-82
2022/03/30 11:58:27;;;;;;;10.00;2.70;;;9.20;99.10;;;;;;4955898;29;20189;-83
2022/03/30 12:00:57;;;;;;;12.13;2.43;;;9.30;99.50;;;;;;4957349;28;20171;-83
2022/03/30 12:03:25;;;;;;;13.10;2.80;;;9.40;99.10;;;;;;4957313;28;20162;-83
2022/03/30 12:05:56;;;;;;;7.70;3.00;;;9.30;99.50;;;;;;4956934;28;20178;-83
2022/03/30 12:08:22;;;;;;;9.23;2.40;;;9.10;99.60;;;;;;4955753;29;20189;-82
2022/03/30 12:10:49;;;;;;;7.87;2.47;;;9.10;99.90;;;;;;4957128;28;20201;-83
2022/03/30 12:13:23;;;;;;;9.43;2.67;;;9.30;99.70;;;;;;4955940;29;20268;-84
2022/03/30 12:16:13;;;;;;;9.90;2.70;;;9.50;99.20;;;;;;4956927;28;20257;-83
2022/03/30 12:18:53;;;;;;;14.43;3.07;;;9.50;99.80;;;;;;4956826;28;20165;-84
2022/03/30 12:21:24;;;;;;;10.10;2.60;;;9.50;99.50;;;;;;4955599;28;20310;-83
2022/03/30 12:23:58;;;;;;;12.50;2.77;;;9.60;99.60;;;;;;4956925;28;20196;-84
2022/03/30 12:26:25;;;;;;;6.97;2.57;;;9.90;99.20;;;;;;4955567;29;20176;-84
2022/03/30 12:29:00;;;;;;;11.43;2.50;;;10.10;98.30;;;;;;4956772;28;20244;-83
2022/03/30 12:31:26;;;;;;;11.93;2.67;;;10.10;98.80;;;;;;4956565;28;20205;-80
2022/03/30 12:33:52;;;;;;;11.37;2.87;;;10.10;98.10;;;;;;4955408;29;20185;-79
2022/03/30 12:36:19;;;;;;;9.07;2.47;;;9.90;97.60;;;;;;4956359;28;20193;-80
2022/03/30 12:38:51;;;;;;;10.57;3.00;;;10.10;98.40;;;;;;4956572;28;20200;-80
2022/03/30 12:41:27;;;;;;;10.23;2.67;;;10.40;97.80;;;;;;4956799;29;20500;-80
2022/03/30 12:44:01;;;;;;;10.77;2.80;;;10.80;97.10;;;;;;4956305;28;20220;-80
2022/03/30 12:46:32;;;;;;;7.23;2.50;;;10.80;97.20;;;;;;4956509;28;20234;-79
2022/03/30 12:49:09;;;;;;;8.30;2.50;;;10.90;97.20;;;;;;4956396;28;20181;-79
2022/03/30 12:51:36;;;;;;;9.27;2.37;;;11.00;96.80;;;;;;4956444;28;20213;-79
2022/03/30 12:54:04;;;;;;;13.00;3.27;;;10.80;96.60;;;;;;4956255;28;20181;-80
2022/03/30 12:56:30;;;;;;;9.70;3.03;;;10.70;96.40;;;;;;4955037;29;20196;-80
2022/03/30 12:59:00;;;;;;;13.80;3.40;;;10.80;97.30;;;;;;4956380;28;20180;-80
2022/03/30 13:01:29;;;;;;;12.93;2.87;;;10.90;96.70;;;;;;4956518;28;20185;-81
2022/03/30 13:03:55;;;;;;;8.73;2.70;;;10.90;96.70;;;;;;4956343;28;20174;-79
2022/03/30 13:06:22;;;;;;;7.33;2.47;;;10.70;97.20;;;;;;4954707;29;20276;-80